Annette, Alaska
Current Conditions -  °F | °C
As of 3:53 PM on Tuesday 21 Oct 2014 (Local Time) from PANT Reporting Station
Light Rain Light Rain  
Wind Chill: 52°   Ceiling: 3100
Heat Index: 52°   Visibility: 10mi
Dew Point: 45°   Wind: 21mph
Humidity: 77%   Direction: 130°SE
Pressure: 29.24"   Gusts: 36mph
Location:  55.05°N, 131.6°W
Report Text: PANT 220053Z AUTO 13018G31KT 10SM -RA BKN031 BKN035 OVC060 11/07 A2924 RMK AO2 PK WND 14031/0049 SLP901 P0000 T01110072 TSNO
Loading
Personal Weather Stations






























Interactive Weather Map
Tropical Storm Tracking
New forecast layout! Learn more

10-Day Weather Forecast

Advertisements
Track Severe Weather on mobile